Time;durP1;ratioP1;P1;durP2;ratioP2;P2;SDS_P1;SDS_P2;PMS_P1;PMS_P2;Temp;Humidity;BMP_temperature;BMP_pressure;BME280_temperature;BME280_humidity;BME280_pressure;Samples;Min_cycle;Max_cycle;Signal;HPM_P1;HPM_P2
2022/08/06 00:01:08;;;;;;;;;1.25;1.25;;;;;18.52;41.19;101669.34;4992041;28;46479;-73
2022/08/06 00:03:33;;;;;;;;;2.00;1.75;;;;;18.47;41.29;101666.84;4980482;28;45587;-72
2022/08/06 00:05:58;;;;;;;;;1.00;1.00;;;;;18.45;41.73;101674.06;4975626;28;45416;-73
2022/08/06 00:08:24;;;;;;;;;2.00;1.00;;;;;18.47;41.61;101682.03;4975473;28;45485;-73
2022/08/06 00:10:49;;;;;;;;;2.00;2.00;;;;;18.44;42.53;101682.16;4974824;28;45519;-72
2022/08/06 00:13:14;;;;;;;;;1.75;1.00;;;;;18.41;41.70;101675.09;4985853;28;45461;-73
2022/08/06 00:15:40;;;;;;;;;3.00;2.00;;;;;18.44;41.66;101674.13;4994849;28;45735;-73
2022/08/06 00:18:05;;;;;;;;;3.00;2.00;;;;;18.43;41.34;101669.69;4979476;28;45714;-73
2022/08/06 00:20:31;;;;;;;;;3.00;2.00;;;;;18.44;41.94;101671.44;4975379;28;46635;-72
2022/08/06 00:22:58;;;;;;;;;3.00;1.00;;;;;18.45;42.17;101673.19;4982780;28;45451;-74
2022/08/06 00:25:23;;;;;;;;;1.50;1.00;;;;;18.40;42.41;101669.78;4974831;28;45517;-73
2022/08/06 00:27:48;;;;;;;;;2.00;1.50;;;;;18.39;41.90;101668.06;4974709;28;45487;-72
2022/08/06 00:30:14;;;;;;;;;1.50;1.50;;;;;18.39;42.55;101673.41;4974184;28;45988;-75
2022/08/06 00:32:39;;;;;;;;;2.00;2.00;;;;;18.34;43.17;101664.66;4980050;28;45469;-73
2022/08/06 00:35:05;;;;;;;;;1.75;1.75;;;;;18.29;42.33;101670.16;4985462;28;45445;-74
2022/08/06 00:37:32;;;;;;;;;1.50;1.50;;;;;18.28;42.39;101672.00;4994361;28;45405;-73
2022/08/06 00:39:58;;;;;;;;;3.75;2.25;;;;;18.25;42.68;101677.44;4994086;28;46682;-74
2022/08/06 00:42:25;;;;;;;;;2.75;2.75;;;;;18.22;42.77;101672.19;4993427;28;45632;-72
2022/08/06 00:44:50;;;;;;;;;2.00;2.00;;;;;18.10;42.83;101668.13;4994428;28;45413;-72
2022/08/06 00:47:16;;;;;;;;;2.25;2.25;;;;;18.09;42.49;101662.84;4994316;28;45441;-74
2022/08/06 00:49:41;;;;;;;;;3.00;3.00;;;;;18.13;43.34;101683.22;5006446;28;47881;-73
2022/08/06 00:52:06;;;;;;;;;3.50;2.50;;;;;18.11;43.07;101682.38;4975025;28;45441;-74
2022/08/06 00:54:32;;;;;;;;;3.75;3.75;;;;;18.04;43.32;101678.19;4984902;28;45503;-74
2022/08/06 00:56:57;;;;;;;;;3.00;3.00;;;;;18.00;43.38;101684.56;4997184;28;45582;-73
2022/08/06 00:59:22;;;;;;;;;4.00;2.25;;;;;17.96;43.54;101688.25;4997408;28;45645;-75
2022/08/06 01:01:48;;;;;;;;;4.50;3.00;;;;;17.92;43.43;101685.69;4997779;28;45539;-73
2022/08/06 01:04:13;;;;;;;;;1.25;1.25;;;;;17.85;43.98;101684.09;4996504;28;46044;-73
2022/08/06 01:06:39;;;;;;;;;5.00;4.75;;;;;17.81;43.91;101690.50;4978145;28;45368;-73
2022/08/06 01:09:04;;;;;;;;;5.75;3.00;;;;;17.79;44.13;101691.44;4977665;28;45931;-72
2022/08/06 01:11:30;;;;;;;;;2.50;2.50;;;;;17.64;44.36;101666.94;4977555;28;45355;-74
2022/08/06 01:13:55;;;;;;;;;1.75;1.75;;;;;17.71;44.32;101694.38;4994153;28;45372;-73
2022/08/06 01:16:49;;;;;;;;;3.00;3.00;;;;;17.65;44.66;101694.56;4997613;28;45367;-72
2022/08/06 01:19:27;;;;;;;;;1.50;1.25;;;;;17.61;44.61;101688.44;4979120;28;45674;-75
2022/08/06 01:22:05;;;;;;;;;2.50;2.50;;;;;17.59;44.57;101688.47;4981061;28;45454;-74
2022/08/06 01:24:50;;;;;;;;;2.00;2.00;;;;;17.55;44.97;101697.53;4995432;28;45601;-73
2022/08/06 01:27:24;;;;;;;;;4.25;3.00;;;;;17.56;45.02;101698.41;4995968;28;45387;-73
2022/08/06 01:29:55;;;;;;;;;2.25;2.25;;;;;17.56;44.43;101695.72;4996339;28;45574;-73
2022/08/06 01:32:35;;;;;;;;;2.00;1.00;;;;;17.54;44.82;101698.47;4994980;28;45418;-73
2022/08/06 01:35:13;;;;;;;;;3.00;2.00;;;;;17.52;45.02;101697.66;4995646;28;45510;-74
2022/08/06 01:37:59;;;;;;;;;1.75;1.75;;;;;17.56;44.96;101706.44;4975647;28;45564;-74
2022/08/06 01:40:32;;;;;;;;;2.50;2.50;;;;;17.43;45.25;101675.66;4980046;28;48420;-74
2022/08/06 01:43:00;;;;;;;;;1.00;1.00;;;;;17.51;44.93;101700.38;5008414;28;45578;-73
2022/08/06 01:45:30;;;;;;;;;2.25;1.00;;;;;17.45;45.38;101700.56;4994967;28;45513;-73
2022/08/06 01:48:01;;;;;;;;;2.00;2.00;;;;;17.43;45.47;101703.28;4996192;28;45414;-74
2022/08/06 01:50:32;;;;;;;;;3.00;1.75;;;;;17.43;45.44;101703.28;4995743;28;45569;-74
2022/08/06 01:53:01;;;;;;;;;2.25;2.25;;;;;17.44;45.40;101706.81;4991360;28;45545;-74
2022/08/06 01:55:41;;;;;;;;;2.00;2.00;;;;;17.35;45.37;101705.28;4993025;28;45474;-72
2022/08/06 01:58:09;;;;;;;;;1.00;1.00;;;;;17.33;45.77;101701.81;4996213;28;45418;-74
2022/08/06 02:00:38;;;;;;;;;1.00;1.00;;;;;17.31;45.88;101709.88;4987921;28;46300;-73
2022/08/06 02:03:13;;;;;;;;;1.50;1.50;;;;;17.23;45.93;101702.09;4989515;28;45438;-73
2022/08/06 02:05:41;;;;;;;;;1.50;1.50;;;;;17.24;46.10;101705.63;4994798;28;45383;-73
2022/08/06 02:08:10;;;;;;;;;1.25;1.25;;;;;17.22;46.64;101712.81;4995331;28;45437;-73
2022/08/06 02:10:36;;;;;;;;;2.25;1.25;;;;;17.17;46.41;101699.59;4995140;28;45621;-74
2022/08/06 02:13:03;;;;;;;;;2.00;2.00;;;;;17.16;46.24;101713.88;4994573;28;45467;-73
2022/08/06 02:15:30;;;;;;;;;1.00;1.00;;;;;17.02;46.86;101703.59;4995780;28;45551;-73
2022/08/06 02:18:03;;;;;;;;;1.75;1.75;;;;;17.03;47.04;101705.31;4985787;28;45403;-74
2022/08/06 02:20:36;;;;;;;;;3.50;1.00;;;;;17.00;46.66;101707.22;4975748;28;45399;-73
2022/08/06 02:23:06;;;;;;;;;1.75;1.00;;;;;16.93;47.10;101702.97;4975879;28;45356;-72
2022/08/06 02:25:33;;;;;;;;;2.00;2.00;;;;;16.89;46.78;101701.31;4988794;28;45513;-74
2022/08/06 02:28:02;;;;;;;;;1.00;1.00;;;;;16.90;46.98;101706.63;4955170;28;1173634;-73
2022/08/06 02:30:31;;;;;;;;;1.50;1.50;;;;;16.89;47.95;101695.97;4996362;28;45497;-72
2022/08/06 02:32:56;;;;;;;;;1.00;1.00;;;;;16.85;47.06;101698.72;4995313;28;45470;-74
2022/08/06 02:35:22;;;;;;;;;1.00;1.00;;;;;16.81;46.77;101699.72;4995331;28;45450;-74
2022/08/06 02:38:02;;;;;;;;;2.00;2.00;;;;;16.83;47.15;101703.19;4996297;28;45585;-73
2022/08/06 02:40:35;;;;;;;;;2.25;2.00;;;;;16.79;47.16;101706.91;4995250;28;45622;-74
2022/08/06 02:43:05;;;;;;;;;1.25;1.25;;;;;16.69;47.21;101700.06;4996245;28;45415;-73
2022/08/06 02:45:57;;;;;;;;;2.00;2.00;;;;;16.70;47.79;101705.34;4982465;28;45439;-73
2022/08/06 02:48:43;;;;;;;;;2.00;1.50;;;;;16.64;46.88;101704.63;4979803;28;45660;-72
2022/08/06 02:51:15;;;;;;;;;1.00;1.00;;;;;16.63;47.50;101706.44;4995940;28;46207;-74
2022/08/06 02:53:57;;;;;;;;;2.00;2.00;;;;;16.61;46.83;101697.59;4995453;28;45320;-74
2022/08/06 02:56:26;;;;;;;;;1.25;1.25;;;;;16.52;47.69;101688.03;5006994;28;45516;-74
2022/08/06 02:58:53;;;;;;;;;1.00;1.00;;;;;16.53;47.65;101694.25;4995890;28;45446;-74
2022/08/06 03:01:23;;;;;;;;;1.50;1.50;;;;;16.37;48.11;101667.13;4995570;28;45508;-74
2022/08/06 03:03:52;;;;;;;;;1.50;1.50;;;;;16.50;47.80;101705.00;4995643;28;45519;-73
2022/08/06 03:06:19;;;;;;;;;1.25;1.25;;;;;16.49;47.52;101701.47;4994302;28;45605;-73
2022/08/06 03:08:46;;;;;;;;;3.50;3.00;;;;;16.40;48.05;101682.16;4993690;28;45436;-73
2022/08/06 03:11:13;;;;;;;;;1.00;1.00;;;;;16.40;48.35;101693.72;4995571;28;45525;-73
2022/08/06 03:13:42;;;;;;;;;2.50;1.00;;;;;16.45;48.56;101697.13;4996080;28;45375;-73
2022/08/06 03:16:10;;;;;;;;;3.00;2.00;;;;;16.43;47.94;101672.28;4993318;28;45387;-73
2022/08/06 03:18:36;;;;;;;;;3.00;1.75;;;;;16.34;48.27;101683.22;4977085;28;45509;-74
2022/08/06 03:21:03;;;;;;;;;1.00;1.00;;;;;16.36;48.11;101685.84;4976370;28;45422;-73
2022/08/06 03:23:30;;;;;;;;;2.00;1.50;;;;;16.38;47.58;101682.19;4975665;28;45609;-74
2022/08/06 03:25:57;;;;;;;;;1.25;1.25;;;;;16.33;47.79;101692.13;4975744;28;45570;-72
2022/08/06 03:28:25;;;;;;;;;1.00;1.00;;;;;16.31;47.59;101691.28;4975574;28;45513;-73
2022/08/06 03:30:52;;;;;;;;;8.00;2.25;;;;;16.29;48.50;101682.44;4975596;28;46375;-74
2022/08/06 03:33:19;;;;;;;;;2.00;2.00;;;;;16.22;48.04;101688.88;4991455;28;45375;-74
2022/08/06 03:35:45;;;;;;;;;2.00;2.00;;;;;16.23;47.76;101685.28;4995588;28;45446;-73
2022/08/06 03:38:12;;;;;;;;;2.00;2.00;;;;;16.26;48.30;101694.09;4993381;28;45485;-73
2022/08/06 03:40:41;;;;;;;;;4.00;3.50;;;;;16.21;48.07;101695.13;4994332;28;45447;-73
2022/08/06 03:43:08;;;;;;;;;2.00;2.00;;;;;16.20;48.34;101691.59;4995176;28;45428;-73
2022/08/06 03:45:38;;;;;;;;;4.25;3.00;;;;;16.20;48.35;101688.00;4995350;28;45365;-74
2022/08/06 03:48:05;;;;;;;;;2.50;2.50;;;;;16.19;48.09;101688.94;4992740;28;45343;-73
2022/08/06 03:50:38;;;;;;;;;2.75;2.50;;;;;16.11;48.00;101686.47;4994944;28;45755;-73
2022/08/06 03:53:08;;;;;;;;;3.00;3.00;;;;;16.09;48.09;101696.28;4994090;28;45475;-73
2022/08/06 03:55:37;;;;;;;;;4.50;4.00;;;;;16.10;48.81;101682.06;4991045;28;45333;-73
2022/08/06 03:58:07;;;;;;;;;5.50;4.25;;;;;16.04;48.75;101691.06;4995178;28;45363;-73
2022/08/06 04:00:40;;;;;;;;;8.00;3.25;;;;;16.03;48.37;101683.97;4994937;28;46114;-73
2022/08/06 04:03:07;;;;;;;;;8.00;4.00;;;;;16.01;48.39;101680.50;4993995;28;45425;-73
2022/08/06 04:05:35;;;;;;;;;4.00;4.00;;;;;15.94;48.77;101674.44;4993001;28;45765;-72
2022/08/06 04:08:04;;;;;;;;;4.75;4.50;;;;;16.00;48.27;101694.72;4994834;28;45371;-72
2022/08/06 04:10:33;;;;;;;;;2.50;2.50;;;;;15.92;48.07;101694.06;4994521;28;46177;-74
2022/08/06 04:13:00;;;;;;;;;3.75;3.75;;;;;15.91;48.99;101687.84;4995983;28;45786;-73
2022/08/06 04:15:26;;;;;;;;;1.00;1.00;;;;;15.89;48.83;101691.47;4994406;28;45476;-73
2022/08/06 04:17:54;;;;;;;;;3.75;3.50;;;;;15.87;48.47;101704.84;4989214;28;45615;-72
2022/08/06 04:20:22;;;;;;;;;3.25;3.00;;;;;15.89;48.90;101702.13;4974469;28;46289;-74
2022/08/06 04:22:48;;;;;;;;;2.00;2.00;;;;;15.92;48.44;101710.06;4975123;28;45486;-74
2022/08/06 04:25:13;;;;;;;;;2.00;2.00;;;;;15.90;48.72;101709.22;4990623;28;45430;-76
2022/08/06 04:27:41;;;;;;;;;1.00;1.00;;;;;15.86;48.49;101719.06;4994659;28;45525;-76
2022/08/06 04:30:07;;;;;;;;;4.00;2.75;;;;;15.84;48.19;101710.25;4994812;28;46271;-76
2022/08/06 04:32:34;;;;;;;;;0.75;0.75;;;;;15.82;47.86;101709.41;4991015;28;45446;-75
2022/08/06 04:35:03;;;;;;;;;3.00;1.25;;;;;15.83;48.55;101708.47;4994433;28;45553;-74
2022/08/06 04:37:29;;;;;;;;;1.50;1.50;;;;;15.84;48.16;101714.72;4993630;28;45550;-75
2022/08/06 04:39:55;;;;;;;;;2.00;2.00;;;;;16.01;47.75;101716.97;5009295;28;47496;-75
2022/08/06 04:42:21;;;;;;;;;1.00;1.00;;;;;16.35;47.13;101724.97;4994354;28;45414;-74
2022/08/06 04:44:47;;;;;;;;;0.00;0.00;;;;;16.68;46.29;101722.31;4994119;28;45356;-74
2022/08/06 04:47:14;;;;;;;;;1.50;1.50;;;;;17.07;45.40;101715.94;4991635;28;45605;-73
2022/08/06 04:49:39;;;;;;;;;0.50;0.50;;;;;17.60;44.27;101726.81;4993197;28;45465;-73
2022/08/06 04:52:05;;;;;;;;;1.50;1.00;;;;;17.97;43.46;101724.78;4993091;28;45463;-74
2022/08/06 04:54:30;;;;;;;;;0.50;0.50;;;;;18.42;42.58;101726.84;4994493;28;45347;-73
2022/08/06 04:56:56;;;;;;;;;2.00;1.00;;;;;18.83;41.43;101737.88;4980898;28;45435;-73
2022/08/06 04:59:21;;;;;;;;;1.00;1.00;;;;;19.29;40.69;101738.84;4975066;28;45484;-75
2022/08/06 05:01:46;;;;;;;;;1.00;1.00;;;;;19.79;40.09;101735.16;4991631;28;45366;-74
2022/08/06 05:04:12;;;;;;;;;1.00;1.00;;;;;20.17;38.88;101732.69;4993810;28;45708;-74
2022/08/06 05:06:49;;;;;;;;;1.75;1.75;;;;;20.57;37.85;101739.06;4983551;28;45402;-74
2022/08/06 05:09:26;;;;;;;;;1.00;1.00;;;;;21.02;37.22;101739.78;4974092;28;45494;-74
2022/08/06 05:11:56;;;;;;;;;0.00;0.00;;;;;21.45;36.34;101732.41;4974455;28;45638;-74
2022/08/06 05:14:45;;;;;;;;;1.00;1.00;;;;;21.83;35.44;101726.13;4974265;28;45419;-73
2022/08/06 05:17:14;;;;;;;;;2.25;1.00;;;;;22.20;34.48;101729.69;4980492;28;45541;-74
2022/08/06 05:19:53;;;;;;;;;1.00;1.00;;;;;22.44;34.21;101735.69;4993567;28;46245;-75
2022/08/06 05:22:21;;;;;;;;;2.25;1.00;;;;;22.75;33.85;101733.19;4992585;28;45477;-73
2022/08/06 05:24:47;;;;;;;;;0.75;0.75;;;;;23.21;32.85;101728.03;4993710;28;45373;-75
2022/08/06 05:27:14;;;;;;;;;0.50;0.00;;;;;23.47;32.33;101733.78;4992980;28;45421;-73
2022/08/06 05:29:40;;;;;;;;;1.00;1.00;;;;;23.69;32.30;101728.06;4993616;28;45598;-74
2022/08/06 05:32:06;;;;;;;;;1.00;1.00;;;;;24.16;31.48;101743.34;4983896;28;45473;-75
2022/08/06 05:34:32;;;;;;;;;0.25;0.25;;;;;24.60;30.93;101753.34;4973940;28;45389;-76
2022/08/06 05:36:57;;;;;;;;;1.50;1.50;;;;;24.92;30.55;101742.38;4988442;28;45639;-75
2022/08/06 05:39:22;;;;;;;;;1.00;1.00;;;;;25.45;30.31;101745.38;4993101;28;46437;-76
2022/08/06 05:41:48;;;;;;;;;1.00;1.00;;;;;25.93;29.21;101739.53;4993347;28;45452;-76
2022/08/06 05:44:13;;;;;;;;;1.50;1.50;;;;;26.27;28.91;101731.88;4996934;28;45474;-76
2022/08/06 05:46:51;;;;;;;;;2.75;2.00;;;;;26.73;28.60;101742.25;4996138;28;45507;-76
2022/08/06 05:49:26;;;;;;;;;0.75;0.75;;;;;27.02;27.63;101736.63;4995579;28;48303;-76
2022/08/06 05:51:56;;;;;;;;;1.00;1.00;;;;;27.21;27.78;101743.44;4997109;28;45394;-72
2022/08/06 05:55:05;;;;;;;;;0.50;0.25;;;;;26.98;27.56;101753.22;5011912;28;45431;-73
2022/08/06 05:57:50;;;;;;;;;2.00;1.00;;;;;27.03;27.63;101741.06;4996958;28;45434;-75
2022/08/06 06:00:20;;;;;;;;;0.00;0.00;;;;;27.59;27.08;101737.97;4996320;28;45488;-75
2022/08/06 06:02:50;;;;;;;;;2.50;1.50;;;;;27.56;26.15;101746.34;4995513;28;45465;-74
2022/08/06 06:05:15;;;;;;;;;1.00;1.00;;;;;27.72;27.65;101751.47;4995105;28;45505;-74
2022/08/06 06:07:41;;;;;;;;;2.50;1.25;;;;;28.13;25.98;101758.38;4996757;28;45509;-74
2022/08/06 06:10:08;;;;;;;;;1.00;1.00;;;;;28.27;25.67;101737.44;4995656;28;46414;-74
2022/08/06 06:12:36;;;;;;;;;1.00;1.00;;;;;28.66;25.46;101748.97;4997310;28;45447;-75
2022/08/06 06:15:03;;;;;;;;;0.50;0.25;;;;;28.61;25.59;101745.75;4993146;28;45510;-74
2022/08/06 06:18:06;;;;;;;;;1.50;1.00;;;;;28.74;24.99;101751.06;4994625;28;45583;-74
2022/08/06 06:20:54;;;;;;;;;2.00;1.00;;;;;29.14;24.45;101737.88;4996546;28;46607;-73
2022/08/06 06:23:44;;;;;;;;;0.00;0.00;;;;;28.96;25.07;101742.94;4995072;28;45576;-79
2022/08/06 06:26:17;;;;;;;;;0.75;0.75;;;;;28.95;24.74;101738.47;4994846;28;45332;-74
2022/08/06 06:28:52;;;;;;;;;1.00;1.00;;;;;28.65;23.97;101747.22;4996583;28;45514;-75
2022/08/06 06:31:40;;;;;;;;;2.00;1.00;;;;;29.03;24.35;101729.69;4991395;28;45721;-76
2022/08/06 06:34:15;;;;;;;;;2.00;1.00;;;;;29.49;23.92;101733.31;4996629;28;45490;-75
2022/08/06 06:37:03;;;;;;;;;2.00;0.00;;;;;29.39;24.10;101735.91;4980882;28;45395;-77
2022/08/06 06:39:39;;;;;;;;;0.25;0.25;;;;;29.59;23.81;101736.97;4976855;28;45423;-75
2022/08/06 06:42:16;;;;;;;;;0.50;0.50;;;;;29.82;23.48;101739.66;4976677;28;46420;-74
2022/08/06 06:45:08;;;;;;;;;1.25;1.25;;;;;29.65;23.98;101751.94;4976548;28;45337;-74
2022/08/06 06:47:41;;;;;;;;;0.00;0.00;;;;;30.02;23.91;101755.22;4992370;28;45535;-73
2022/08/06 06:50:32;;;;;;;;;2.00;1.00;;;;;30.43;22.06;101752.72;4996066;28;45583;-75
2022/08/06 06:52:58;;;;;;;;;0.00;0.00;;;;;30.12;22.67;101744.38;4984607;28;47077;-76
2022/08/06 06:55:32;;;;;;;;;0.75;0.75;;;;;30.36;22.08;101752.31;4993573;28;45609;-74
2022/08/06 06:58:23;;;;;;;;;0.00;0.00;;;;;30.25;21.92;101757.84;4995139;28;45398;-73
2022/08/06 07:00:50;;;;;;;;;0.00;0.00;;;;;29.64;22.05;101759.25;4995563;28;45442;-75
2022/08/06 07:03:19;;;;;;;;;0.00;0.00;;;;;29.42;22.25;101752.84;4995842;28;45358;-75
2022/08/06 07:05:47;;;;;;;;;1.00;1.00;;;;;28.96;22.67;101758.41;4977805;28;45575;-75
2022/08/06 07:08:16;;;;;;;;;0.00;0.00;;;;;29.16;22.66;101756.78;4983087;28;45515;-74
2022/08/06 07:10:43;;;;;;;;;1.25;1.00;;;;;28.94;22.79;101754.91;4979892;28;45616;-74
2022/08/06 07:13:11;;;;;;;;;0.00;0.00;;;;;28.83;23.01;101767.53;4989917;28;45353;-76
2022/08/06 07:15:40;;;;;;;;;0.50;0.50;;;;;28.75;23.56;101769.97;4993850;28;45520;-77
2022/08/06 07:18:06;;;;;;;;;0.00;0.00;;;;;29.33;22.67;101772.66;4993171;28;45494;-75
2022/08/06 07:20:34;;;;;;;;;1.00;0.00;;;;;29.73;22.11;101777.56;4992522;28;45569;-75
2022/08/06 07:23:03;;;;;;;;;0.75;0.75;;;;;29.78;22.14;101775.31;4993536;28;47100;-74
2022/08/06 07:25:29;;;;;;;;;0.75;0.75;;;;;30.07;22.72;101773.91;4978610;28;45758;-76
2022/08/06 07:27:54;;;;;;;;;1.00;0.00;;;;;30.27;21.89;101762.16;4984660;28;45598;-76
2022/08/06 07:30:21;;;;;;;;;0.00;0.00;;;;;30.67;21.41;101778.84;4986336;28;45418;-75
2022/08/06 07:32:48;;;;;;;;;1.00;1.00;;;;;31.09;21.14;101774.22;4995572;28;45991;-76
2022/08/06 07:35:16;;;;;;;;;2.00;0.00;;;;;31.24;20.56;101777.47;4993245;28;45464;-75
2022/08/06 07:37:50;;;;;;;;;1.00;1.00;;;;;31.63;20.54;101768.59;4986057;28;45524;-74
2022/08/06 07:40:23;;;;;;;;;0.00;0.00;;;;;31.88;20.43;101789.88;4974985;28;45383;-75
2022/08/06 07:42:53;;;;;;;;;0.00;0.00;;;;;31.79;20.05;101778.94;4986925;28;46572;-75
2022/08/06 07:45:24;;;;;;;;;0.00;0.00;;;;;31.95;19.81;101771.06;4985074;28;45439;-77
2022/08/06 07:47:53;;;;;;;;;0.00;0.00;;;;;32.01;19.46;101767.75;4975460;28;45450;-76
2022/08/06 07:50:20;;;;;;;;;0.00;0.00;;;;;32.17;19.56;101775.41;4982265;28;45483;-76
2022/08/06 07:52:46;;;;;;;;;0.00;0.00;;;;;31.52;19.13;101785.88;4976275;28;45920;-74
2022/08/06 07:55:14;;;;;;;;;0.50;0.50;;;;;30.80;20.93;101776.78;4994041;28;45405;-74
2022/08/06 07:57:40;;;;;;;;;1.00;1.00;;;;;31.13;20.21;101781.16;4995116;28;45443;-75
2022/08/06 08:00:07;;;;;;;;;0.00;0.00;;;;;31.40;19.74;101784.25;4990454;28;45517;-74
2022/08/06 08:02:33;;;;;;;;;0.00;0.00;;;;;31.60;19.49;101780.63;4995246;28;46172;-75
2022/08/06 08:07:45;;;;;;;;;0.50;0.50;;;;;30.63;19.99;101790.00;4989219;28;45636;-76
2022/08/06 08:10:11;;;;;;;;;0.00;0.00;;;;;30.44;21.09;101779.84;4975731;28;45713;-74
2022/08/06 08:12:38;;;;;;;;;0.00;0.00;;;;;30.72;20.45;101787.50;4977313;28;46021;-74
2022/08/06 08:15:07;;;;;;;;;0.75;0.00;;;;;30.55;20.71;101784.38;4980883;28;45576;-76
2022/08/06 08:17:34;;;;;;;;;0.00;0.00;;;;;29.80;21.05;101788.81;4978573;28;45520;-75
2022/08/06 08:20:07;;;;;;;;;0.00;0.00;;;;;29.66;21.13;101799.97;4987211;28;45737;-75
2022/08/06 08:22:34;;;;;;;;;0.00;0.00;;;;;29.17;21.26;101793.91;4991672;28;46019;-76
2022/08/06 08:24:59;;;;;;;;;0.00;0.00;;;;;28.49;22.81;101802.75;4983224;28;45500;-76
2022/08/06 08:27:25;;;;;;;;;0.00;0.00;;;;;28.53;22.75;101803.41;4986318;28;45438;-75
2022/08/06 08:29:51;;;;;;;;;0.00;0.00;;;;;28.46;22.42;101797.56;4984733;28;45498;-75
2022/08/06 08:32:17;;;;;;;;;0.00;0.00;;;;;28.57;23.28;101798.59;4982224;28;45525;-77
2022/08/06 08:34:43;;;;;;;;;1.00;1.00;;;;;28.96;23.00;101791.06;4988869;28;45341;-76
2022/08/06 08:37:08;;;;;;;;;0.00;0.00;;;;;29.33;21.48;101796.28;4980219;28;45427;-75
2022/08/06 08:39:34;;;;;;;;;0.75;0.75;;;;;29.43;21.90;101786.38;4980676;28;45420;-74
2022/08/06 08:42:23;;;;;;;;;0.00;0.00;;;;;29.73;21.11;101788.44;4984285;28;45419;-76
2022/08/06 08:44:49;;;;;;;;;0.50;0.50;;;;;29.81;21.20;101779.69;4997096;28;45452;-74
2022/08/06 08:47:18;;;;;;;;;0.00;0.00;;;;;29.87;21.35;101784.59;4984516;28;45384;-75
2022/08/06 08:49:51;;;;;;;;;0.00;0.00;;;;;30.28;21.50;101777.53;4974029;28;45637;-75
2022/08/06 08:52:20;;;;;;;;;0.00;0.00;;;;;30.60;20.70;101775.78;4985991;28;45576;-75
2022/08/06 08:54:50;;;;;;;;;0.25;0.00;;;;;30.47;20.53;101765.06;4973516;28;45505;-75
2022/08/06 08:57:16;;;;;;;;;2.50;0.00;;;;;30.64;19.77;101769.06;4985828;28;45415;-75
2022/08/06 08:59:42;;;;;;;;;1.00;0.00;;;;;30.32;19.07;101769.09;4992775;28;45457;-75
2022/08/06 09:02:12;;;;;;;;;0.75;0.00;;;;;30.19;19.55;101778.31;4976107;28;46329;-75
2022/08/06 09:04:38;;;;;;;;;0.00;0.00;;;;;29.75;20.20;101769.25;4983957;28;45445;-74
2022/08/06 09:07:05;;;;;;;;;0.00;0.00;;;;;29.57;19.40;101786.13;4992345;28;45477;-74
2022/08/06 09:09:34;;;;;;;;;0.00;0.00;;;;;29.74;19.67;101767.53;4985008;28;45455;-74
2022/08/06 09:12:00;;;;;;;;;0.00;0.00;;;;;29.32;19.55;101781.81;4987465;28;45546;-74
2022/08/06 09:14:26;;;;;;;;;0.00;0.00;;;;;29.12;19.99;101771.63;4980073;28;45516;-74
2022/08/06 09:16:51;;;;;;;;;0.00;0.00;;;;;29.26;20.26;101773.28;4987034;28;45512;-75
2022/08/06 09:19:17;;;;;;;;;0.00;0.00;;;;;29.11;20.35;101781.66;4986592;28;45432;-74
2022/08/06 09:21:43;;;;;;;;;0.00;0.00;;;;;29.49;20.58;101783.16;4992763;28;45554;-73
2022/08/06 09:24:09;;;;;;;;;0.00;0.00;;;;;29.65;19.58;101779.19;4984727;28;45447;-75
2022/08/06 09:26:34;;;;;;;;;1.50;0.00;;;;;30.27;19.25;101792.13;4988310;28;45533;-76
2022/08/06 09:29:00;;;;;;;;;0.00;0.00;;;;;29.77;19.61;101789.06;4999073;28;46009;-74
2022/08/06 09:31:25;;;;;;;;;0.00;0.00;;;;;29.53;19.17;101784.66;4990029;28;46390;-74
2022/08/06 09:33:56;;;;;;;;;0.00;0.00;;;;;29.81;20.40;101790.56;4982784;28;45340;-75
2022/08/06 09:36:22;;;;;;;;;0.75;0.75;;;;;30.23;19.36;101778.91;4989845;28;45522;-73
2022/08/06 09:38:56;;;;;;;;;0.00;0.00;;;;;30.29;19.05;101790.16;4985597;28;46000;-76
2022/08/06 09:41:24;;;;;;;;;0.00;0.00;;;;;30.57;18.39;101786.97;4982808;28;45473;-74
2022/08/06 09:43:53;;;;;;;;;0.00;0.00;;;;;30.91;18.04;101782.13;4985556;28;45582;-76
2022/08/06 09:46:36;;;;;;;;;0.00;0.00;;;;;30.89;18.07;101773.25;4986342;28;45498;-75
2022/08/06 09:49:03;;;;;;;;;0.00;0.00;;;;;30.72;18.03;101782.06;4980568;28;45423;-76
2022/08/06 09:51:29;;;;;;;;;0.00;0.00;;;;;30.55;17.81;101778.03;4978387;28;45338;-74
2022/08/06 09:53:57;;;;;;;;;0.00;0.00;;;;;30.09;18.48;101789.13;4985870;28;45618;-75
2022/08/06 09:56:24;;;;;;;;;0.00;0.00;;;;;29.63;18.85;101775.72;4984207;28;45514;-76
2022/08/06 09:58:50;;;;;;;;;0.00;0.00;;;;;29.75;18.73;101788.31;4978295;28;45533;-75
2022/08/06 10:01:25;;;;;;;;;0.75;0.75;;;;;29.95;19.35;101779.38;4984411;28;45551;-76
2022/08/06 10:03:53;;;;;;;;;0.00;0.00;;;;;29.99;18.90;101777.28;4976386;28;45472;-74
2022/08/06 10:06:21;;;;;;;;;1.25;0.00;;;;;30.20;19.11;101784.63;4976822;28;45463;-74
2022/08/06 10:08:49;;;;;;;;;0.00;0.00;;;;;30.39;18.77;101773.03;4989968;28;45419;-76
2022/08/06 10:11:14;;;;;;;;;0.00;0.00;;;;;30.83;18.56;101780.09;4986850;28;46195;-75
2022/08/06 10:13:47;;;;;;;;;0.50;0.00;;;;;30.92;18.29;101759.31;4983212;28;45427;-75
2022/08/06 10:16:19;;;;;;;;;0.00;0.00;;;;;30.74;18.84;101766.41;4988366;28;45566;-74
2022/08/06 10:18:49;;;;;;;;;0.25;0.25;;;;;31.05;17.94;101775.53;4984244;28;45379;-75
2022/08/06 10:21:18;;;;;;;;;0.75;0.75;;;;;31.17;18.03;101774.44;4975701;28;45478;-75
2022/08/06 10:23:50;;;;;;;;;0.75;0.00;;;;;31.07;17.92;101773.50;4975237;28;45739;-75
2022/08/06 10:26:24;;;;;;;;;0.00;0.00;;;;;30.94;17.40;101786.47;4977396;28;45455;-76
2022/08/06 10:28:52;;;;;;;;;1.00;1.00;;;;;30.81;18.57;101762.16;4990147;28;45446;-75
2022/08/06 10:31:19;;;;;;;;;0.00;0.00;;;;;30.92;16.86;101770.25;4986379;28;46249;-75
2022/08/06 10:33:54;;;;;;;;;0.50;0.50;;;;;30.83;18.30;101754.69;4985904;28;45445;-76
2022/08/06 10:36:28;;;;;;;;;1.50;0.00;;;;;30.78;17.79;101756.97;4995215;28;45335;-75
2022/08/06 10:38:55;;;;;;;;;0.00;0.00;;;;;30.82;17.15;101775.66;4984006;28;45375;-74
2022/08/06 10:41:21;;;;;;;;;0.50;0.50;;;;;30.62;17.93;101758.28;4988493;28;45753;-76
2022/08/06 10:43:49;;;;;;;;;0.00;0.00;;;;;30.62;17.32;101769.19;4979713;28;45443;-75
2022/08/06 10:46:15;;;;;;;;;1.75;0.00;;;;;30.39;18.42;101773.88;4983877;28;45403;-75
2022/08/06 10:48:43;;;;;;;;;0.00;0.00;;;;;30.43;18.36;101761.75;4982779;28;45471;-76
2022/08/06 10:51:10;;;;;;;;;0.25;0.25;;;;;30.63;18.82;101754.56;4984748;28;46440;-76
2022/08/06 10:53:39;;;;;;;;;0.25;0.25;;;;;30.89;17.92;101748.69;4991401;28;45524;-75
2022/08/06 10:56:07;;;;;;;;;3.25;1.00;;;;;31.12;18.30;101751.25;4991315;28;45382;-75
2022/08/06 10:58:34;;;;;;;;;0.00;0.00;;;;;31.07;18.21;101731.72;4991570;28;45577;-75
2022/08/06 11:01:02;;;;;;;;;0.75;0.75;;;;;31.39;17.88;101733.41;4991531;28;45776;-74
2022/08/06 11:03:55;;;;;;;;;0.50;0.50;;;;;31.12;17.32;101733.00;4992147;28;46076;-74
2022/08/06 11:06:41;;;;;;;;;0.00;0.00;;;;;30.05;17.90;101754.06;4975616;28;45676;-75
2022/08/06 11:09:31;;;;;;;;;1.75;1.75;;;;;29.78;18.39;101745.34;4981055;28;45498;-75
2022/08/06 11:12:21;;;;;;;;;1.25;0.75;;;;;30.13;18.43;101740.69;4976314;28;46127;-75
2022/08/06 11:14:47;;;;;;;;;1.25;1.25;;;;;30.23;18.24;101730.72;4991427;28;45636;-73
2022/08/06 11:17:12;;;;;;;;;2.00;1.50;;;;;30.15;18.04;101735.94;4994883;28;45576;-75
2022/08/06 11:19:41;;;;;;;;;2.25;2.00;;;;;30.01;18.82;101742.56;4989006;28;45676;-75
2022/08/06 11:22:06;;;;;;;;;2.50;1.50;;;;;30.01;18.97;101736.28;4983090;28;45394;-77
2022/08/06 11:24:32;;;;;;;;;1.25;1.25;;;;;29.93;19.01;101732.34;4974910;28;45645;-74
2022/08/06 11:26:58;;;;;;;;;0.00;0.00;;;;;29.88;19.60;101740.03;4974942;28;45478;-75
2022/08/06 11:29:23;;;;;;;;;0.00;0.00;;;;;30.26;19.22;101730.47;4976831;28;45521;-74
2022/08/06 11:31:50;;;;;;;;;1.00;0.25;;;;;30.45;18.69;101712.53;4994938;28;45362;-76
2022/08/06 11:34:18;;;;;;;;;0.75;0.75;;;;;30.55;18.41;101710.75;4993849;28;45629;-76
2022/08/06 11:36:46;;;;;;;;;0.25;0.25;;;;;30.85;19.36;101714.47;4985908;28;45610;-76
2022/08/06 11:39:12;;;;;;;;;0.00;0.00;;;;;30.79;18.48;101706.84;4987611;28;45605;-76